createdAt,value
2023-03-07T00:01:48.806Z,14.50
2023-03-07T00:04:16.046Z,14.40
2023-03-07T00:06:42.977Z,14.40
2023-03-07T00:09:10.094Z,14.30
2023-03-07T00:11:37.283Z,14.20
2023-03-07T00:14:08.149Z,14.20
2023-03-07T00:16:35.271Z,14.20
2023-03-07T00:19:02.254Z,14.20
2023-03-07T00:21:31.613Z,14.30
2023-03-07T00:23:58.607Z,14.30
2023-03-07T00:26:27.501Z,14.40
2023-03-07T00:28:55.909Z,14.60
2023-03-07T00:31:24.448Z,14.50
2023-03-07T00:33:51.515Z,14.50
2023-03-07T00:36:21.192Z,14.50
2023-03-07T00:38:48.609Z,14.50
2023-03-07T00:41:21.004Z,14.60
2023-03-07T00:43:48.603Z,14.50
2023-03-07T00:46:16.875Z,14.60
2023-03-07T00:48:44.366Z,14.60
2023-03-07T00:51:14.873Z,14.50
2023-03-07T00:53:42.223Z,14.70
2023-03-07T00:56:23.759Z,14.60
2023-03-07T00:58:51.482Z,14.60
2023-03-07T01:01:22.410Z,14.70
2023-03-07T01:03:50.249Z,14.70
2023-03-07T01:06:20.555Z,14.80
2023-03-07T01:08:47.829Z,14.70
2023-03-07T01:11:16.074Z,14.80
2023-03-07T01:13:43.759Z,14.80
2023-03-07T01:16:17.835Z,14.80
2023-03-07T01:18:48.234Z,14.70
2023-03-07T01:21:17.213Z,14.70
2023-03-07T01:23:44.780Z,14.70
2023-03-07T01:26:14.041Z,14.70
2023-03-07T01:28:41.231Z,14.80
2023-03-07T01:31:08.691Z,14.80
2023-03-07T01:33:35.955Z,14.70
2023-03-07T01:36:03.284Z,14.70
2023-03-07T01:38:34.035Z,14.70
2023-03-07T01:41:06.095Z,14.70
2023-03-07T01:43:35.331Z,14.50
2023-03-07T01:46:25.202Z,14.60
2023-03-07T01:49:11.336Z,14.60
2023-03-07T01:51:41.610Z,14.50
2023-03-07T01:54:12.211Z,14.30
2023-03-07T01:56:40.976Z,14.30
2023-03-07T01:59:08.705Z,14.40
2023-03-07T02:01:37.022Z,14.40
2023-03-07T02:04:06.761Z,14.40
2023-03-07T02:06:36.981Z,14.50
2023-03-07T02:09:12.268Z,14.70
2023-03-07T02:11:42.351Z,14.60
2023-03-07T02:14:10.407Z,14.60
2023-03-07T02:16:38.826Z,14.50
2023-03-07T02:19:25.668Z,14.70
2023-03-07T02:22:19.649Z,14.70
2023-03-07T02:25:13.640Z,14.70
2023-03-07T02:27:41.322Z,14.70
2023-03-07T02:30:09.439Z,14.70
2023-03-07T02:32:37.228Z,14.70
2023-03-07T02:35:16.514Z,14.60
2023-03-07T02:37:47.866Z,14.50
2023-03-07T02:40:20.547Z,14.60
2023-03-07T02:42:48.962Z,14.40
2023-03-07T02:45:18.169Z,14.30
2023-03-07T02:47:46.206Z,14.40
2023-03-07T02:50:16.821Z,14.60
2023-03-07T02:52:47.580Z,14.80
2023-03-07T02:55:14.595Z,14.80
2023-03-07T02:57:48.107Z,14.70
2023-03-07T03:00:15.655Z,14.70
2023-03-07T03:02:42.952Z,14.60
2023-03-07T03:05:09.969Z,14.70
2023-03-07T03:07:36.956Z,14.60
2023-03-07T03:10:04.664Z,14.40
2023-03-07T03:12:33.077Z,14.30
2023-03-07T03:15:00.478Z,14.30
2023-03-07T03:17:27.438Z,14.30
2023-03-07T03:19:54.374Z,14.40
2023-03-07T03:22:21.355Z,14.40
2023-03-07T03:24:50.377Z,14.30
2023-03-07T03:27:19.269Z,14.30
2023-03-07T03:29:49.323Z,14.30
2023-03-07T03:32:16.809Z,14.30
2023-03-07T03:34:46.027Z,14.20
2023-03-07T03:37:13.057Z,14.30
2023-03-07T03:39:40.810Z,14.50
2023-03-07T03:42:08.233Z,14.60
2023-03-07T03:44:35.472Z,14.40
2023-03-07T03:47:02.597Z,14.50
2023-03-07T03:49:29.881Z,14.80
2023-03-07T03:51:57.029Z,14.90
2023-03-07T03:54:24.348Z,14.90
2023-03-07T03:56:51.307Z,14.80
2023-03-07T03:59:18.215Z,14.70
2023-03-07T04:01:46.281Z,14.60
2023-03-07T04:04:13.288Z,14.60
2023-03-07T04:06:40.351Z,14.80
2023-03-07T04:09:07.333Z,14.90
2023-03-07T04:11:36.582Z,14.90
2023-03-07T04:14:04.008Z,14.80
2023-03-07T04:16:31.067Z,14.70
2023-03-07T04:18:59.024Z,14.70
2023-03-07T04:21:26.301Z,14.70
2023-03-07T04:23:58.384Z,14.70
2023-03-07T04:26:29.531Z,14.70
2023-03-07T04:28:57.257Z,14.70
2023-03-07T04:31:31.178Z,14.90
2023-03-07T04:34:00.590Z,15.00
2023-03-07T04:36:27.661Z,14.90
2023-03-07T04:38:54.733Z,14.90
2023-03-07T04:41:23.631Z,14.60
2023-03-07T04:43:55.361Z,14.50
2023-03-07T04:46:24.225Z,14.50
2023-03-07T04:48:51.439Z,14.50
2023-03-07T04:51:19.321Z,14.40
2023-03-07T04:53:48.321Z,14.30
2023-03-07T04:56:16.265Z,14.30
2023-03-07T04:58:44.524Z,14.20
2023-03-07T05:01:11.614Z,14.20
2023-03-07T05:03:38.708Z,14.30
2023-03-07T05:06:14.074Z,14.20
2023-03-07T05:08:41.751Z,14.20
2023-03-07T05:11:08.872Z,14.20
2023-03-07T05:13:36.263Z,14.20
2023-03-07T05:16:03.835Z,14.10
2023-03-07T05:18:31.971Z,14.00
2023-03-07T05:21:00.115Z,14.10
2023-03-07T05:23:28.175Z,14.20
2023-03-07T05:25:56.215Z,14.40
2023-03-07T05:28:24.738Z,14.60
2023-03-07T05:30:52.679Z,14.70
2023-03-07T05:33:20.165Z,14.80
2023-03-07T05:35:48.211Z,14.80
2023-03-07T05:38:15.985Z,14.70
2023-03-07T05:40:43.026Z,14.70
2023-03-07T05:43:11.451Z,14.90
2023-03-07T05:45:38.838Z,14.80
2023-03-07T05:48:06.108Z,14.60
2023-03-07T05:50:33.152Z,14.50
2023-03-07T05:53:00.312Z,14.60
2023-03-07T05:55:30.189Z,14.50
2023-03-07T05:57:57.769Z,14.50
2023-03-07T06:00:25.466Z,14.70
2023-03-07T06:03:04.952Z,14.70
2023-03-07T06:05:33.125Z,14.50
2023-03-07T06:08:00.253Z,14.30
2023-03-07T06:10:27.520Z,14.20
2023-03-07T06:12:55.055Z,14.30
2023-03-07T06:15:24.592Z,14.30
2023-03-07T06:17:57.350Z,14.20
2023-03-07T06:20:25.106Z,14.20
2023-03-07T06:22:54.657Z,14.20
2023-03-07T06:25:21.902Z,14.20
2023-03-07T06:27:49.680Z,14.10
2023-03-07T06:30:17.053Z,13.90
2023-03-07T06:32:44.105Z,13.70
2023-03-07T06:35:11.211Z,13.60
2023-03-07T06:37:38.439Z,13.60
2023-03-07T06:40:06.331Z,13.60
2023-03-07T06:42:35.779Z,13.50
2023-03-07T06:45:04.257Z,13.50
2023-03-07T06:47:31.626Z,13.50
2023-03-07T06:49:59.333Z,13.40
2023-03-07T06:52:26.291Z,13.10
2023-03-07T06:54:53.278Z,13.30
2023-03-07T06:57:20.484Z,13.60
2023-03-07T06:59:47.708Z,13.70
2023-03-07T07:02:15.464Z,13.90
2023-03-07T07:04:42.607Z,14.10
2023-03-07T07:07:10.118Z,14.30
2023-03-07T07:09:37.111Z,14.30
2023-03-07T07:12:05.996Z,14.00
2023-03-07T07:14:34.746Z,13.90
2023-03-07T07:17:02.338Z,14.00
2023-03-07T07:19:29.499Z,14.10
2023-03-07T07:21:58.076Z,14.20
2023-03-07T07:24:25.340Z,14.30
2023-03-07T07:26:53.789Z,14.70
2023-03-07T07:29:21.244Z,14.70
2023-03-07T07:31:49.834Z,14.50
2023-03-07T07:34:18.870Z,14.60
2023-03-07T07:36:46.959Z,14.50
2023-03-07T07:39:15.293Z,14.40
2023-03-07T07:41:44.800Z,14.50
2023-03-07T07:44:12.862Z,14.70
2023-03-07T07:46:52.353Z,14.70
2023-03-07T07:49:19.321Z,14.60
2023-03-07T07:51:46.832Z,14.60
2023-03-07T07:54:14.701Z,14.70
2023-03-07T07:56:41.834Z,14.90
2023-03-07T07:59:08.807Z,15.00
2023-03-07T08:01:36.111Z,14.90
2023-03-07T08:04:03.366Z,14.90
2023-03-07T08:06:30.884Z,14.70
2023-03-07T08:08:58.010Z,14.80
2023-03-07T08:11:25.024Z,14.80
2023-03-07T08:13:52.622Z,14.80
2023-03-07T08:16:20.979Z,14.90
2023-03-07T08:18:53.368Z,14.90
2023-03-07T08:21:21.334Z,14.70
2023-03-07T08:23:48.402Z,14.60
2023-03-07T08:26:15.510Z,14.60
2023-03-07T08:28:45.783Z,14.70
2023-03-07T08:31:15.684Z,14.80
2023-03-07T08:33:43.305Z,14.90
2023-03-07T08:36:10.567Z,14.90
2023-03-07T08:38:37.594Z,14.80
2023-03-07T08:41:06.724Z,14.80
2023-03-07T08:43:36.449Z,14.80
2023-03-07T08:46:04.033Z,14.90
2023-03-07T08:48:31.015Z,15.00
2023-03-07T08:50:58.161Z,15.00
2023-03-07T08:53:25.174Z,14.90
2023-03-07T08:55:52.135Z,14.90
2023-03-07T08:58:19.048Z,14.90
2023-03-07T09:00:46.217Z,14.80
2023-03-07T09:03:13.210Z,14.70
2023-03-07T09:05:40.468Z,14.90
2023-03-07T09:08:08.218Z,14.90
2023-03-07T09:10:36.509Z,14.90
2023-03-07T09:13:03.565Z,14.90
2023-03-07T09:15:30.487Z,14.90
2023-03-07T09:17:57.446Z,14.90
2023-03-07T09:20:24.863Z,14.70
2023-03-07T09:22:53.684Z,14.70
2023-03-07T09:25:23.327Z,14.70
2023-03-07T09:27:51.968Z,14.80
2023-03-07T09:30:19.106Z,14.70
2023-03-07T09:32:46.239Z,14.60
2023-03-07T09:35:13.196Z,14.70
2023-03-07T09:37:40.162Z,14.70
2023-03-07T09:40:07.910Z,14.70
2023-03-07T09:42:43.453Z,14.70
2023-03-07T09:45:34.426Z,14.90
2023-03-07T09:48:31.072Z,14.90
2023-03-07T09:50:59.283Z,14.70
2023-03-07T09:53:42.685Z,14.70
2023-03-07T09:56:15.754Z,14.50
2023-03-07T09:58:46.980Z,14.40
2023-03-07T10:01:20.056Z,14.20
2023-03-07T10:03:51.800Z,14.10
2023-03-07T10:06:26.473Z,14.10
2023-03-07T10:08:55.942Z,14.20
2023-03-07T10:12:20.477Z,14.20
2023-03-07T10:15:15.028Z,14.20
2023-03-07T10:18:08.927Z,14.20
2023-03-07T10:21:06.289Z,14.20
2023-03-07T10:23:45.077Z,14.30
2023-03-07T10:26:33.681Z,14.30
2023-03-07T10:29:10.553Z,14.30
2023-03-07T10:31:40.832Z,14.20
2023-03-07T10:34:27.918Z,14.20
2023-03-07T10:37:08.783Z,14.10
2023-03-07T10:39:52.654Z,14.10
2023-03-07T10:42:22.673Z,14.10
2023-03-07T10:44:51.828Z,14.10
2023-03-07T10:47:26.993Z,14.00
2023-03-07T10:50:07.505Z,14.10
2023-03-07T10:52:40.563Z,14.10
2023-03-07T10:55:35.646Z,14.10
2023-03-07T10:58:12.793Z,14.10
2023-03-07T11:00:40.891Z,14.10
2023-03-07T11:03:27.310Z,14.00
2023-03-07T11:05:54.647Z,14.00
2023-03-07T11:08:29.510Z,14.00
2023-03-07T11:10:56.644Z,13.80
2023-03-07T11:13:24.822Z,13.90
2023-03-07T11:16:00.204Z,13.90
2023-03-07T11:18:43.965Z,13.80
2023-03-07T11:21:27.127Z,14.00
2023-03-07T11:24:20.177Z,13.90
2023-03-07T11:26:53.155Z,14.10
2023-03-07T11:29:20.437Z,14.30
2023-03-07T11:32:05.857Z,14.30
2023-03-07T11:34:33.174Z,14.20
2023-03-07T11:37:23.918Z,14.20
2023-03-07T11:39:59.545Z,14.30
2023-03-07T11:42:38.664Z,14.30
2023-03-07T11:45:46.658Z,14.20
2023-03-07T11:48:22.628Z,14.20
2023-03-07T11:50:54.798Z,14.00
2023-03-07T11:53:41.437Z,14.00
2023-03-07T11:56:12.059Z,14.00
2023-03-07T11:58:41.781Z,13.90
2023-03-07T12:01:23.928Z,13.90
2023-03-07T12:04:05.938Z,13.90
2023-03-07T12:06:43.995Z,13.90
2023-03-07T12:09:30.043Z,13.90
2023-03-07T12:12:18.697Z,13.90
2023-03-07T12:15:13.391Z,13.90
2023-03-07T12:17:58.636Z,13.90
2023-03-07T12:20:28.393Z,14.00
2023-03-07T12:23:15.574Z,14.00
2023-03-07T12:25:49.538Z,13.90
2023-03-07T12:28:27.897Z,14.00
2023-03-07T12:31:17.221Z,14.00
2023-03-07T12:34:06.237Z,13.90
2023-03-07T12:36:47.530Z,13.80
2023-03-07T12:39:36.017Z,13.70
2023-03-07T12:42:25.671Z,13.70
2023-03-07T12:45:10.808Z,13.80
2023-03-07T12:47:58.729Z,13.80
2023-03-07T12:50:34.353Z,13.70
2023-03-07T12:53:22.625Z,13.70
2023-03-07T12:56:10.650Z,13.60
2023-03-07T12:58:44.587Z,13.40
2023-03-07T13:01:18.143Z,13.50
2023-03-07T13:03:56.695Z,13.50
2023-03-07T13:06:25.244Z,13.40
2023-03-07T13:08:55.729Z,13.40
2023-03-07T13:11:28.716Z,13.40
2023-03-07T13:14:00.315Z,13.40
2023-03-07T13:16:40.754Z,13.40
2023-03-07T13:19:35.679Z,13.30
2023-03-07T13:22:04.734Z,13.40
2023-03-07T13:24:40.181Z,13.50
2023-03-07T13:27:17.855Z,13.50
2023-03-07T13:30:13.503Z,13.40
2023-03-07T13:32:55.763Z,13.30
2023-03-07T13:35:28.761Z,13.30
2023-03-07T13:38:15.517Z,13.20
2023-03-07T13:40:46.630Z,13.20
2023-03-07T13:43:19.910Z,13.20
2023-03-07T13:45:48.057Z,13.10
2023-03-07T13:48:27.173Z,13.20
2023-03-07T13:50:54.226Z,13.20
2023-03-07T13:53:43.008Z,13.30
2023-03-07T13:56:24.794Z,13.30
2023-03-07T13:58:56.568Z,13.30
2023-03-07T14:01:39.253Z,13.40
2023-03-07T14:04:39.439Z,13.40
2023-03-07T14:07:28.280Z,13.40
2023-03-07T14:10:19.635Z,13.50
2023-03-07T14:13:26.160Z,13.40
2023-03-07T14:16:13.500Z,13.40
2023-03-07T14:18:50.642Z,13.30
2023-03-07T14:21:38.084Z,13.40
2023-03-07T14:24:11.105Z,13.30
2023-03-07T14:27:03.504Z,13.30
2023-03-07T14:29:31.141Z,13.30
2023-03-07T14:32:01.106Z,13.30
2023-03-07T14:34:34.559Z,13.30
2023-03-07T14:37:06.214Z,13.30
2023-03-07T14:39:59.297Z,13.20
2023-03-07T14:43:03.644Z,13.20
2023-03-07T14:45:36.805Z,13.20
2023-03-07T14:48:25.820Z,13.20
2023-03-07T14:50:53.690Z,13.20
2023-03-07T14:53:29.676Z,13.30
2023-03-07T14:55:59.545Z,13.30
2023-03-07T14:58:36.053Z,13.40
2023-03-07T15:01:04.805Z,13.50
2023-03-07T15:03:32.390Z,13.50
2023-03-07T15:06:01.565Z,13.60
2023-03-07T15:08:38.298Z,13.70
2023-03-07T15:11:08.320Z,13.60
2023-03-07T15:13:45.176Z,13.50
2023-03-07T15:16:33.112Z,13.50
2023-03-07T15:19:14.557Z,13.40
2023-03-07T15:21:56.704Z,13.40
2023-03-07T15:24:35.112Z,13.40
2023-03-07T15:27:04.520Z,13.30
2023-03-07T15:29:33.174Z,13.40
2023-03-07T15:32:07.356Z,13.40
2023-03-07T15:34:39.830Z,13.40
2023-03-07T15:37:28.184Z,13.40
2023-03-07T15:39:56.633Z,13.40
2023-03-07T15:42:23.616Z,13.50
2023-03-07T15:45:01.891Z,13.50
2023-03-07T15:47:31.631Z,13.50
2023-03-07T15:50:04.515Z,13.50
2023-03-07T15:52:37.558Z,13.50
2023-03-07T15:55:14.287Z,13.50
2023-03-07T15:57:51.063Z,13.50
2023-03-07T16:00:39.942Z,13.40
2023-03-07T16:03:12.945Z,13.30
2023-03-07T16:05:40.250Z,13.30
2023-03-07T16:08:13.345Z,13.30
2023-03-07T16:11:02.055Z,13.30
2023-03-07T16:13:32.175Z,13.20
2023-03-07T16:16:16.934Z,13.00
2023-03-07T16:18:44.346Z,12.90
2023-03-07T16:21:16.419Z,12.90
2023-03-07T16:23:44.300Z,12.90
2023-03-07T16:26:16.297Z,13.00
2023-03-07T16:28:44.342Z,13.00
2023-03-07T16:31:16.435Z,13.00
2023-03-07T16:33:44.718Z,13.00
2023-03-07T16:36:13.081Z,13.00
2023-03-07T16:38:41.064Z,13.00
2023-03-07T16:41:18.031Z,13.10
2023-03-07T16:43:46.074Z,13.00
2023-03-07T16:46:18.299Z,13.00
2023-03-07T16:48:45.717Z,13.00
2023-03-07T16:51:18.589Z,13.00
2023-03-07T16:53:46.416Z,12.90
2023-03-07T16:56:32.504Z,12.90
2023-03-07T16:59:00.724Z,13.00
2023-03-07T17:01:27.731Z,13.10
2023-03-07T17:03:56.570Z,13.00
2023-03-07T17:06:37.077Z,13.00
2023-03-07T17:09:04.897Z,12.90
2023-03-07T17:11:32.697Z,12.90
2023-03-07T17:14:03.991Z,12.80
2023-03-07T17:16:32.273Z,12.70
2023-03-07T17:18:59.275Z,12.80
2023-03-07T17:21:26.514Z,12.80
2023-03-07T17:23:53.478Z,12.80
2023-03-07T17:26:39.421Z,12.70
2023-03-07T17:29:12.158Z,12.70
2023-03-07T17:31:39.183Z,12.60
2023-03-07T17:34:06.116Z,12.50
2023-03-07T17:36:33.236Z,12.50
2023-03-07T17:39:00.215Z,12.40
2023-03-07T17:41:27.464Z,12.40
2023-03-07T17:43:54.387Z,12.40
2023-03-07T17:46:22.011Z,12.50
2023-03-07T17:48:49.066Z,12.60
2023-03-07T17:51:16.388Z,12.40
2023-03-07T17:53:43.444Z,11.90
2023-03-07T17:56:13.243Z,11.70
2023-03-07T17:58:40.347Z,11.90
2023-03-07T18:01:08.516Z,12.00
2023-03-07T18:03:35.973Z,12.00
2023-03-07T18:06:03.799Z,12.20
2023-03-07T18:08:31.531Z,12.30
2023-03-07T18:11:04.360Z,12.40
2023-03-07T18:13:33.838Z,12.50
2023-03-07T18:16:01.920Z,12.40
2023-03-07T18:18:34.895Z,12.40
2023-03-07T18:21:05.738Z,12.40
2023-03-07T18:23:34.399Z,12.40
2023-03-07T18:26:06.835Z,12.50
2023-03-07T18:28:37.629Z,12.50
2023-03-07T18:31:11.436Z,12.50
2023-03-07T18:33:39.080Z,12.50
2023-03-07T18:36:09.920Z,12.60
2023-03-07T18:38:36.976Z,11.70
2023-03-07T18:41:13.144Z,10.90
2023-03-07T18:43:40.394Z,10.30
2023-03-07T18:46:13.044Z,9.90
2023-03-07T18:48:40.452Z,9.70
2023-03-07T18:51:13.297Z,9.60
2023-03-07T18:53:41.278Z,9.40
2023-03-07T18:56:14.453Z,9.20
2023-03-07T18:58:42.830Z,9.20
2023-03-07T19:01:11.054Z,9.10
2023-03-07T19:03:38.604Z,8.90
2023-03-07T19:06:05.841Z,8.90
2023-03-07T19:08:32.807Z,8.80
2023-03-07T19:11:09.626Z,8.80
2023-03-07T19:13:36.859Z,8.80
2023-03-07T19:16:12.524Z,8.70
2023-03-07T19:18:39.891Z,8.70
2023-03-07T19:21:19.204Z,8.80
2023-03-07T19:23:50.026Z,9.50
2023-03-07T19:26:21.409Z,10.10
2023-03-07T19:28:50.878Z,10.60
2023-03-07T19:31:21.072Z,10.90
2023-03-07T19:33:49.514Z,11.20
2023-03-07T19:36:22.178Z,11.50
2023-03-07T19:38:50.776Z,11.60
2023-03-07T19:41:20.042Z,11.70
2023-03-07T19:43:47.040Z,11.80
2023-03-07T19:46:15.635Z,11.90
2023-03-07T19:48:44.157Z,11.90
2023-03-07T19:51:16.672Z,11.80
2023-03-07T19:53:45.261Z,12.00
2023-03-07T19:56:17.050Z,12.00
2023-03-07T19:58:44.094Z,12.00
2023-03-07T20:01:13.682Z,12.00
2023-03-07T20:03:40.823Z,12.00
2023-03-07T20:06:10.666Z,12.00
2023-03-07T20:08:37.701Z,12.00
2023-03-07T20:11:19.708Z,12.10
2023-03-07T20:13:48.200Z,12.00
2023-03-07T20:16:17.536Z,12.10
2023-03-07T20:18:48.905Z,12.10
2023-03-07T20:21:20.329Z,12.10
2023-03-07T20:23:48.657Z,12.10
2023-03-07T20:26:18.825Z,12.00
2023-03-07T20:28:46.522Z,12.00
2023-03-07T20:31:13.957Z,12.00
2023-03-07T20:33:46.850Z,11.90
2023-03-07T20:36:25.673Z,11.90
2023-03-07T20:38:55.266Z,12.00
2023-03-07T20:41:25.124Z,11.90
2023-03-07T20:43:53.510Z,11.90
2023-03-07T20:46:22.192Z,11.90
2023-03-07T20:48:52.081Z,12.00
2023-03-07T20:51:21.593Z,11.90
2023-03-07T20:53:58.851Z,11.90
2023-03-07T20:56:27.852Z,11.90
2023-03-07T20:58:56.128Z,11.90
2023-03-07T21:01:26.187Z,11.90
2023-03-07T21:04:07.974Z,12.00
2023-03-07T21:06:36.352Z,12.00
2023-03-07T21:09:08.109Z,12.00
2023-03-07T21:11:37.488Z,12.10
2023-03-07T21:14:04.894Z,12.00
2023-03-07T21:16:32.691Z,12.00
2023-03-07T21:19:01.795Z,12.00
2023-03-07T21:21:30.244Z,12.10
2023-03-07T21:23:57.765Z,12.10
2023-03-07T21:26:27.294Z,12.10
2023-03-07T21:28:55.549Z,12.10
2023-03-07T21:31:25.131Z,12.10
2023-03-07T21:34:00.583Z,12.10
2023-03-07T21:36:29.341Z,12.10
2023-03-07T21:38:56.380Z,12.20
2023-03-07T21:41:25.334Z,12.20
2023-03-07T21:43:56.324Z,12.10
2023-03-07T21:46:24.524Z,12.20
2023-03-07T21:48:51.923Z,12.20
2023-03-07T21:51:19.960Z,12.20
2023-03-07T21:53:47.135Z,12.20
2023-03-07T21:56:18.999Z,12.30
2023-03-07T21:58:50.171Z,12.20
2023-03-07T22:01:20.701Z,12.20
2023-03-07T22:03:48.068Z,12.20
2023-03-07T22:06:16.716Z,12.10
2023-03-07T22:08:44.214Z,12.10
2023-03-07T22:11:12.842Z,12.10
2023-03-07T22:13:41.337Z,12.10
2023-03-07T22:16:13.786Z,12.10
2023-03-07T22:18:40.918Z,12.10
2023-03-07T22:21:17.316Z,12.10
2023-03-07T22:23:44.841Z,12.10
2023-03-07T22:26:12.874Z,12.10
2023-03-07T22:28:41.177Z,12.10
2023-03-07T22:31:12.341Z,12.10
2023-03-07T22:33:40.361Z,12.10
2023-03-07T22:36:08.900Z,12.10
2023-03-07T22:38:36.073Z,12.10
2023-03-07T22:41:23.332Z,12.10
2023-03-07T22:43:50.663Z,12.10
2023-03-07T22:46:17.606Z,12.20
2023-03-07T22:48:44.630Z,12.20
2023-03-07T22:51:17.770Z,12.20
2023-03-07T22:53:45.230Z,12.30
2023-03-07T22:56:21.300Z,12.30
2023-03-07T22:58:48.717Z,12.30
2023-03-07T23:01:20.252Z,12.20
2023-03-07T23:03:50.969Z,12.20
2023-03-07T23:06:18.704Z,12.20
2023-03-07T23:08:47.474Z,12.20
2023-03-07T23:11:14.998Z,12.20
2023-03-07T23:13:42.080Z,12.20
2023-03-07T23:16:15.494Z,12.20
2023-03-07T23:18:43.288Z,12.20
2023-03-07T23:21:13.822Z,12.10
2023-03-07T23:23:41.324Z,12.10
2023-03-07T23:26:08.602Z,12.10
2023-03-07T23:28:35.736Z,12.10
2023-03-07T23:31:02.802Z,12.10
2023-03-07T23:33:29.740Z,12.10
2023-03-07T23:35:59.567Z,12.10
2023-03-07T23:38:26.540Z,12.10
2023-03-07T23:40:53.454Z,12.10
2023-03-07T23:43:20.425Z,12.10
2023-03-07T23:45:47.473Z,12.10
2023-03-07T23:48:14.449Z,12.00
2023-03-07T23:50:41.462Z,12.00
2023-03-07T23:53:08.385Z,12.10
2023-03-07T23:55:35.374Z,12.10
2023-03-07T23:58:02.295Z,12.10
